sensor_id;sensor_type;location;lat;lon;timestamp;P1;durP1;ratioP1;P2;durP2;ratioP2
36497;SDS011;22513;51.222;6.480;2022-10-14T00:02:00;35.40;;;19.42;;
36497;SDS011;22513;51.222;6.480;2022-10-14T00:04:25;31.90;;;21.10;;
36497;SDS011;22513;51.222;6.480;2022-10-14T00:06:51;35.53;;;22.00;;
36497;SDS011;22513;51.222;6.480;2022-10-14T00:09:17;31.17;;;21.00;;
36497;SDS011;22513;51.222;6.480;2022-10-14T00:11:43;38.60;;;23.50;;
36497;SDS011;22513;51.222;6.480;2022-10-14T00:14:12;40.15;;;22.50;;
36497;SDS011;22513;51.222;6.480;2022-10-14T00:16:41;43.08;;;23.40;;
36497;SDS011;22513;51.222;6.480;2022-10-14T00:19:08;33.92;;;22.08;;
36497;SDS011;22513;51.222;6.480;2022-10-14T00:21:35;34.00;;;21.85;;
36497;SDS011;22513;51.222;6.480;2022-10-14T00:24:02;36.15;;;21.33;;
36497;SDS011;22513;51.222;6.480;2022-10-14T00:26:29;41.85;;;22.10;;
36497;SDS011;22513;51.222;6.480;2022-10-14T00:28:57;42.10;;;22.90;;
36497;SDS011;22513;51.222;6.480;2022-10-14T00:31:23;42.90;;;22.20;;
36497;SDS011;22513;51.222;6.480;2022-10-14T00:33:49;37.55;;;21.10;;
36497;SDS011;22513;51.222;6.480;2022-10-14T00:36:15;41.15;;;21.70;;
36497;SDS011;22513;51.222;6.480;2022-10-14T00:38:42;35.92;;;20.98;;
36497;SDS011;22513;51.222;6.480;2022-10-14T00:41:12;32.53;;;20.67;;
36497;SDS011;22513;51.222;6.480;2022-10-14T00:46:26;38.55;;;21.58;;
36497;SDS011;22513;51.222;6.480;2022-10-14T00:48:57;35.58;;;21.50;;
36497;SDS011;22513;51.222;6.480;2022-10-14T00:51:25;38.78;;;21.15;;
36497;SDS011;22513;51.222;6.480;2022-10-14T00:53:51;31.70;;;20.55;;
36497;SDS011;22513;51.222;6.480;2022-10-14T00:56:18;39.42;;;22.30;;
36497;SDS011;22513;51.222;6.480;2022-10-14T00:58:47;32.70;;;19.38;;
36497;SDS011;22513;51.222;6.480;2022-10-14T01:01:13;32.33;;;20.55;;
36497;SDS011;22513;51.222;6.480;2022-10-14T01:03:39;34.65;;;20.20;;
36497;SDS011;22513;51.222;6.480;2022-10-14T01:06:08;34.60;;;21.05;;
36497;SDS011;22513;51.222;6.480;2022-10-14T01:14:00;41.67;;;20.83;;
36497;SDS011;22513;51.222;6.480;2022-10-14T01:25:55;40.80;;;21.45;;
36497;SDS011;22513;51.222;6.480;2022-10-14T01:28:23;37.58;;;21.50;;
36497;SDS011;22513;51.222;6.480;2022-10-14T01:31:13;33.10;;;20.75;;
36497;SDS011;22513;51.222;6.480;2022-10-14T01:33:45;40.60;;;20.60;;
36497;SDS011;22513;51.222;6.480;2022-10-14T01:36:16;36.85;;;21.98;;
36497;SDS011;22513;51.222;6.480;2022-10-14T01:39:06;32.88;;;20.17;;
36497;SDS011;22513;51.222;6.480;2022-10-14T01:41:44;40.30;;;22.73;;
36497;SDS011;22513;51.222;6.480;2022-10-14T01:44:15;44.72;;;23.17;;
36497;SDS011;22513;51.222;6.480;2022-10-14T01:46:45;39.87;;;22.67;;
36497;SDS011;22513;51.222;6.480;2022-10-14T01:49:18;43.67;;;22.77;;
36497;SDS011;22513;51.222;6.480;2022-10-14T01:51:53;38.53;;;22.90;;
36497;SDS011;22513;51.222;6.480;2022-10-14T01:54:25;42.08;;;22.30;;
36497;SDS011;22513;51.222;6.480;2022-10-14T01:56:55;41.25;;;22.55;;
36497;SDS011;22513;51.222;6.480;2022-10-14T01:59:24;41.67;;;23.47;;
36497;SDS011;22513;51.222;6.480;2022-10-14T02:01:50;42.50;;;23.20;;
36497;SDS011;22513;51.222;6.480;2022-10-14T02:04:19;43.45;;;24.17;;
36497;SDS011;22513;51.222;6.480;2022-10-14T02:06:47;47.03;;;24.15;;
36497;SDS011;22513;51.222;6.480;2022-10-14T02:09:23;42.85;;;24.60;;
36497;SDS011;22513;51.222;6.480;2022-10-14T02:17:30;44.22;;;23.75;;
36497;SDS011;22513;51.222;6.480;2022-10-14T02:20:22;43.35;;;22.95;;
36497;SDS011;22513;51.222;6.480;2022-10-14T02:22:59;41.22;;;24.23;;
36497;SDS011;22513;51.222;6.480;2022-10-14T02:25:37;39.63;;;22.38;;
36497;SDS011;22513;51.222;6.480;2022-10-14T02:28:04;43.00;;;24.73;;
36497;SDS011;22513;51.222;6.480;2022-10-14T02:30:34;48.03;;;23.38;;
36497;SDS011;22513;51.222;6.480;2022-10-14T02:33:02;42.00;;;22.73;;
36497;SDS011;22513;51.222;6.480;2022-10-14T02:35:29;42.15;;;22.58;;
36497;SDS011;22513;51.222;6.480;2022-10-14T02:37:57;36.42;;;21.95;;
36497;SDS011;22513;51.222;6.480;2022-10-14T02:40:36;40.55;;;22.15;;
36497;SDS011;22513;51.222;6.480;2022-10-14T02:43:05;37.42;;;21.42;;
36497;SDS011;22513;51.222;6.480;2022-10-14T02:45:34;40.05;;;22.55;;
36497;SDS011;22513;51.222;6.480;2022-10-14T02:48:00;38.80;;;22.27;;
36497;SDS011;22513;51.222;6.480;2022-10-14T02:50:26;44.90;;;22.48;;
36497;SDS011;22513;51.222;6.480;2022-10-14T02:52:52;41.97;;;22.67;;
36497;SDS011;22513;51.222;6.480;2022-10-14T02:55:17;50.38;;;23.00;;
36497;SDS011;22513;51.222;6.480;2022-10-14T02:57:43;45.67;;;22.27;;
36497;SDS011;22513;51.222;6.480;2022-10-14T03:00:09;46.72;;;23.40;;
36497;SDS011;22513;51.222;6.480;2022-10-14T03:02:35;43.05;;;23.88;;
36497;SDS011;22513;51.222;6.480;2022-10-14T03:05:00;49.60;;;23.38;;
36497;SDS011;22513;51.222;6.480;2022-10-14T03:07:26;46.63;;;23.73;;
36497;SDS011;22513;51.222;6.480;2022-10-14T03:09:52;53.90;;;22.80;;
36497;SDS011;22513;51.222;6.480;2022-10-14T03:12:17;52.05;;;24.58;;
36497;SDS011;22513;51.222;6.480;2022-10-14T03:14:43;48.97;;;23.55;;
36497;SDS011;22513;51.222;6.480;2022-10-14T03:17:09;52.20;;;24.92;;
36497;SDS011;22513;51.222;6.480;2022-10-14T03:19:35;51.58;;;23.15;;
36497;SDS011;22513;51.222;6.480;2022-10-14T03:22:01;49.80;;;24.50;;
36497;SDS011;22513;51.222;6.480;2022-10-14T03:24:26;48.30;;;24.73;;
36497;SDS011;22513;51.222;6.480;2022-10-14T03:26:52;54.53;;;25.30;;
36497;SDS011;22513;51.222;6.480;2022-10-14T03:29:17;53.17;;;24.50;;
36497;SDS011;22513;51.222;6.480;2022-10-14T03:31:43;51.25;;;23.67;;
36497;SDS011;22513;51.222;6.480;2022-10-14T03:34:09;50.58;;;23.05;;
36497;SDS011;22513;51.222;6.480;2022-10-14T03:36:35;57.50;;;23.77;;
36497;SDS011;22513;51.222;6.480;2022-10-14T03:39:01;49.22;;;23.13;;
36497;SDS011;22513;51.222;6.480;2022-10-14T03:41:26;47.20;;;22.92;;
36497;SDS011;22513;51.222;6.480;2022-10-14T03:43:52;51.38;;;22.70;;
36497;SDS011;22513;51.222;6.480;2022-10-14T03:46:17;47.50;;;21.95;;
36497;SDS011;22513;51.222;6.480;2022-10-14T03:48:43;46.45;;;22.40;;
36497;SDS011;22513;51.222;6.480;2022-10-14T03:51:09;48.85;;;22.38;;
36497;SDS011;22513;51.222;6.480;2022-10-14T03:53:34;49.10;;;21.63;;
36497;SDS011;22513;51.222;6.480;2022-10-14T03:56:00;39.30;;;20.83;;
36497;SDS011;22513;51.222;6.480;2022-10-14T03:58:25;44.95;;;21.60;;
36497;SDS011;22513;51.222;6.480;2022-10-14T04:00:51;44.35;;;21.25;;
36497;SDS011;22513;51.222;6.480;2022-10-14T04:03:17;43.33;;;21.83;;
36497;SDS011;22513;51.222;6.480;2022-10-14T04:05:42;44.60;;;20.42;;
36497;SDS011;22513;51.222;6.480;2022-10-14T04:08:08;49.88;;;22.05;;
36497;SDS011;22513;51.222;6.480;2022-10-14T04:10:34;47.58;;;22.23;;
36497;SDS011;22513;51.222;6.480;2022-10-14T04:12:59;49.35;;;21.40;;
36497;SDS011;22513;51.222;6.480;2022-10-14T04:15:25;45.13;;;21.98;;
36497;SDS011;22513;51.222;6.480;2022-10-14T04:17:51;42.35;;;21.02;;
36497;SDS011;22513;51.222;6.480;2022-10-14T04:20:17;47.85;;;21.20;;
36497;SDS011;22513;51.222;6.480;2022-10-14T04:22:43;45.88;;;23.55;;
36497;SDS011;22513;51.222;6.480;2022-10-14T04:25:08;46.45;;;22.48;;
36497;SDS011;22513;51.222;6.480;2022-10-14T04:27:34;50.17;;;22.33;;
36497;SDS011;22513;51.222;6.480;2022-10-14T04:30:00;44.42;;;21.83;;
36497;SDS011;22513;51.222;6.480;2022-10-14T04:32:25;47.45;;;22.25;;
36497;SDS011;22513;51.222;6.480;2022-10-14T04:34:51;46.28;;;20.63;;
36497;SDS011;22513;51.222;6.480;2022-10-14T04:37:18;46.00;;;20.92;;
36497;SDS011;22513;51.222;6.480;2022-10-14T04:39:44;43.80;;;21.48;;
36497;SDS011;22513;51.222;6.480;2022-10-14T04:42:10;45.90;;;21.52;;
36497;SDS011;22513;51.222;6.480;2022-10-14T04:44:36;48.78;;;23.05;;
36497;SDS011;22513;51.222;6.480;2022-10-14T04:47:01;45.65;;;21.45;;
36497;SDS011;22513;51.222;6.480;2022-10-14T04:49:27;47.42;;;20.95;;
36497;SDS011;22513;51.222;6.480;2022-10-14T04:51:52;43.50;;;20.65;;
36497;SDS011;22513;51.222;6.480;2022-10-14T04:54:18;46.65;;;23.23;;
36497;SDS011;22513;51.222;6.480;2022-10-14T04:56:44;43.45;;;22.02;;
36497;SDS011;22513;51.222;6.480;2022-10-14T04:59:09;44.17;;;22.25;;
36497;SDS011;22513;51.222;6.480;2022-10-14T05:01:35;43.67;;;21.42;;
36497;SDS011;22513;51.222;6.480;2022-10-14T05:04:01;42.53;;;20.00;;
36497;SDS011;22513;51.222;6.480;2022-10-14T05:06:27;45.80;;;21.33;;
36497;SDS011;22513;51.222;6.480;2022-10-14T05:08:53;45.22;;;20.55;;
36497;SDS011;22513;51.222;6.480;2022-10-14T05:11:18;39.85;;;20.33;;
36497;SDS011;22513;51.222;6.480;2022-10-14T05:13:44;40.72;;;20.48;;
36497;SDS011;22513;51.222;6.480;2022-10-14T05:16:09;46.25;;;20.73;;
36497;SDS011;22513;51.222;6.480;2022-10-14T05:18:35;41.25;;;20.50;;
36497;SDS011;22513;51.222;6.480;2022-10-14T05:21:02;42.90;;;19.90;;
36497;SDS011;22513;51.222;6.480;2022-10-14T05:23:28;43.83;;;21.35;;
36497;SDS011;22513;51.222;6.480;2022-10-14T05:25:53;43.72;;;21.23;;
36497;SDS011;22513;51.222;6.480;2022-10-14T05:28:19;42.05;;;20.67;;
36497;SDS011;22513;51.222;6.480;2022-10-14T05:30:44;44.00;;;19.92;;
36497;SDS011;22513;51.222;6.480;2022-10-14T05:33:10;39.53;;;21.10;;
36497;SDS011;22513;51.222;6.480;2022-10-14T05:35:36;42.60;;;21.33;;
36497;SDS011;22513;51.222;6.480;2022-10-14T05:38:02;45.17;;;23.30;;
36497;SDS011;22513;51.222;6.480;2022-10-14T05:40:28;51.00;;;24.80;;
36497;SDS011;22513;51.222;6.480;2022-10-14T05:42:54;49.30;;;24.95;;
36497;SDS011;22513;51.222;6.480;2022-10-14T05:45:20;49.55;;;23.90;;
36497;SDS011;22513;51.222;6.480;2022-10-14T05:47:46;54.70;;;24.63;;
36497;SDS011;22513;51.222;6.480;2022-10-14T05:50:12;49.45;;;23.98;;
36497;SDS011;22513;51.222;6.480;2022-10-14T05:52:38;51.83;;;23.98;;
36497;SDS011;22513;51.222;6.480;2022-10-14T05:55:05;61.97;;;27.20;;
36497;SDS011;22513;51.222;6.480;2022-10-14T05:57:31;51.55;;;25.02;;
36497;SDS011;22513;51.222;6.480;2022-10-14T05:59:57;59.47;;;25.77;;
36497;SDS011;22513;51.222;6.480;2022-10-14T06:02:24;57.10;;;26.23;;
36497;SDS011;22513;51.222;6.480;2022-10-14T06:04:49;59.97;;;27.02;;
36497;SDS011;22513;51.222;6.480;2022-10-14T06:07:15;57.00;;;24.80;;
36497;SDS011;22513;51.222;6.480;2022-10-14T06:09:41;58.47;;;26.85;;
36497;SDS011;22513;51.222;6.480;2022-10-14T06:12:06;54.15;;;24.48;;
36497;SDS011;22513;51.222;6.480;2022-10-14T06:14:32;61.17;;;28.27;;
36497;SDS011;22513;51.222;6.480;2022-10-14T06:16:58;57.17;;;26.90;;
36497;SDS011;22513;51.222;6.480;2022-10-14T06:19:23;49.35;;;25.00;;
36497;SDS011;22513;51.222;6.480;2022-10-14T06:21:49;52.00;;;24.67;;
36497;SDS011;22513;51.222;6.480;2022-10-14T06:24:15;57.38;;;27.33;;
36497;SDS011;22513;51.222;6.480;2022-10-14T06:26:40;50.00;;;25.13;;
36497;SDS011;22513;51.222;6.480;2022-10-14T06:29:06;51.53;;;23.48;;
36497;SDS011;22513;51.222;6.480;2022-10-14T06:31:32;55.35;;;24.52;;
36497;SDS011;22513;51.222;6.480;2022-10-14T06:33:58;40.03;;;23.00;;
36497;SDS011;22513;51.222;6.480;2022-10-14T06:36:24;44.67;;;22.95;;
36497;SDS011;22513;51.222;6.480;2022-10-14T06:38:50;43.55;;;21.23;;
36497;SDS011;22513;51.222;6.480;2022-10-14T06:41:16;44.22;;;22.35;;
36497;SDS011;22513;51.222;6.480;2022-10-14T06:43:41;49.92;;;23.38;;
36497;SDS011;22513;51.222;6.480;2022-10-14T06:46:07;42.13;;;22.33;;
36497;SDS011;22513;51.222;6.480;2022-10-14T06:48:33;48.20;;;20.38;;
36497;SDS011;22513;51.222;6.480;2022-10-14T06:50:59;39.95;;;20.55;;
36497;SDS011;22513;51.222;6.480;2022-10-14T06:53:26;42.78;;;20.35;;
36497;SDS011;22513;51.222;6.480;2022-10-14T06:55:59;40.30;;;19.67;;
36497;SDS011;22513;51.222;6.480;2022-10-14T06:58:27;36.78;;;20.13;;
36497;SDS011;22513;51.222;6.480;2022-10-14T07:00:53;36.35;;;19.23;;
36497;SDS011;22513;51.222;6.480;2022-10-14T07:03:19;34.72;;;18.73;;
36497;SDS011;22513;51.222;6.480;2022-10-14T07:05:45;34.35;;;19.08;;
36497;SDS011;22513;51.222;6.480;2022-10-14T07:08:11;40.55;;;20.13;;
36497;SDS011;22513;51.222;6.480;2022-10-14T07:10:36;38.47;;;19.25;;
36497;SDS011;22513;51.222;6.480;2022-10-14T07:13:02;33.95;;;19.05;;
36497;SDS011;22513;51.222;6.480;2022-10-14T07:15:27;37.50;;;20.17;;
36497;SDS011;22513;51.222;6.480;2022-10-14T07:17:53;33.38;;;19.75;;
36497;SDS011;22513;51.222;6.480;2022-10-14T07:20:19;34.30;;;19.40;;
36497;SDS011;22513;51.222;6.480;2022-10-14T07:22:44;31.70;;;18.27;;
36497;SDS011;22513;51.222;6.480;2022-10-14T07:25:10;29.65;;;17.88;;
36497;SDS011;22513;51.222;6.480;2022-10-14T07:27:36;28.88;;;16.83;;
36497;SDS011;22513;51.222;6.480;2022-10-14T07:30:03;26.98;;;15.82;;
36497;SDS011;22513;51.222;6.480;2022-10-14T07:32:29;27.30;;;16.60;;
36497;SDS011;22513;51.222;6.480;2022-10-14T07:34:55;26.48;;;15.10;;
36497;SDS011;22513;51.222;6.480;2022-10-14T07:37:20;23.42;;;14.65;;
36497;SDS011;22513;51.222;6.480;2022-10-14T07:39:46;22.75;;;14.40;;
36497;SDS011;22513;51.222;6.480;2022-10-14T07:42:12;19.67;;;14.40;;
36497;SDS011;22513;51.222;6.480;2022-10-14T07:44:38;23.98;;;14.65;;
36497;SDS011;22513;51.222;6.480;2022-10-14T07:47:04;20.63;;;13.25;;
36497;SDS011;22513;51.222;6.480;2022-10-14T07:49:30;19.48;;;12.77;;
36497;SDS011;22513;51.222;6.480;2022-10-14T07:51:56;18.60;;;13.75;;
36497;SDS011;22513;51.222;6.480;2022-10-14T07:54:23;16.95;;;12.05;;
36497;SDS011;22513;51.222;6.480;2022-10-14T07:56:50;18.67;;;12.47;;
36497;SDS011;22513;51.222;6.480;2022-10-14T07:59:17;14.43;;;10.88;;
36497;SDS011;22513;51.222;6.480;2022-10-14T08:01:47;13.07;;;11.00;;
36497;SDS011;22513;51.222;6.480;2022-10-14T08:04:15;15.90;;;10.48;;
36497;SDS011;22513;51.222;6.480;2022-10-14T08:06:42;12.90;;;10.23;;
36497;SDS011;22513;51.222;6.480;2022-10-14T08:09:11;14.05;;;9.57;;
36497;SDS011;22513;51.222;6.480;2022-10-14T08:11:37;12.25;;;9.90;;
36497;SDS011;22513;51.222;6.480;2022-10-14T08:14:02;15.23;;;10.68;;
36497;SDS011;22513;51.222;6.480;2022-10-14T08:16:30;13.57;;;10.18;;
36497;SDS011;22513;51.222;6.480;2022-10-14T08:18:57;12.77;;;9.68;;
36497;SDS011;22513;51.222;6.480;2022-10-14T08:21:24;12.07;;;9.50;;
36497;SDS011;22513;51.222;6.480;2022-10-14T08:23:51;10.60;;;8.90;;
36497;SDS011;22513;51.222;6.480;2022-10-14T08:26:28;13.88;;;8.18;;
36497;SDS011;22513;51.222;6.480;2022-10-14T08:29:00;10.07;;;7.28;;
36497;SDS011;22513;51.222;6.480;2022-10-14T08:31:28;8.63;;;7.13;;
36497;SDS011;22513;51.222;6.480;2022-10-14T08:33:54;10.55;;;7.47;;
36497;SDS011;22513;51.222;6.480;2022-10-14T08:36:20;9.82;;;7.53;;
36497;SDS011;22513;51.222;6.480;2022-10-14T08:38:47;9.23;;;7.63;;
36497;SDS011;22513;51.222;6.480;2022-10-14T08:50:01;10.88;;;8.75;;
36497;SDS011;22513;51.222;6.480;2022-10-14T08:53:01;10.38;;;8.57;;
36497;SDS011;22513;51.222;6.480;2022-10-14T08:55:42;12.20;;;9.80;;
36497;SDS011;22513;51.222;6.480;2022-10-14T09:00:44;15.85;;;9.70;;
36497;SDS011;22513;51.222;6.480;2022-10-14T09:05:46;11.38;;;8.52;;
36497;SDS011;22513;51.222;6.480;2022-10-14T09:08:20;10.70;;;8.82;;
36497;SDS011;22513;51.222;6.480;2022-10-14T09:10:54;11.35;;;9.02;;
36497;SDS011;22513;51.222;6.480;2022-10-14T09:13:23;9.13;;;7.85;;
36497;SDS011;22513;51.222;6.480;2022-10-14T09:15:59;10.18;;;7.57;;
36497;SDS011;22513;51.222;6.480;2022-10-14T09:18:39;10.40;;;7.55;;
36497;SDS011;22513;51.222;6.480;2022-10-14T09:21:21;10.60;;;8.65;;
36497;SDS011;22513;51.222;6.480;2022-10-14T09:23:57;10.57;;;8.45;;
36497;SDS011;22513;51.222;6.480;2022-10-14T09:26:43;8.95;;;7.80;;
36497;SDS011;22513;51.222;6.480;2022-10-14T09:31:51;10.35;;;7.55;;
36497;SDS011;22513;51.222;6.480;2022-10-14T09:34:19;9.90;;;7.35;;
36497;SDS011;22513;51.222;6.480;2022-10-14T09:37:29;10.27;;;7.88;;
36497;SDS011;22513;51.222;6.480;2022-10-14T09:42:35;10.48;;;7.90;;
36497;SDS011;22513;51.222;6.480;2022-10-14T09:45:15;11.68;;;8.68;;
36497;SDS011;22513;51.222;6.480;2022-10-14T09:47:50;10.00;;;7.63;;
36497;SDS011;22513;51.222;6.480;2022-10-14T09:50:21;10.13;;;7.53;;
36497;SDS011;22513;51.222;6.480;2022-10-14T09:52:54;10.32;;;8.27;;
36497;SDS011;22513;51.222;6.480;2022-10-14T09:55:25;11.00;;;8.52;;
36497;SDS011;22513;51.222;6.480;2022-10-14T09:58:05;12.48;;;8.90;;
36497;SDS011;22513;51.222;6.480;2022-10-14T10:00:38;12.80;;;8.52;;
36497;SDS011;22513;51.222;6.480;2022-10-14T10:03:04;13.18;;;9.02;;
36497;SDS011;22513;51.222;6.480;2022-10-14T10:05:32;10.20;;;8.35;;
36497;SDS011;22513;51.222;6.480;2022-10-14T10:08:04;13.50;;;9.55;;
36497;SDS011;22513;51.222;6.480;2022-10-14T10:10:36;12.02;;;9.80;;
36497;SDS011;22513;51.222;6.480;2022-10-14T10:13:02;14.95;;;9.63;;
36497;SDS011;22513;51.222;6.480;2022-10-14T10:15:27;11.57;;;9.07;;
36497;SDS011;22513;51.222;6.480;2022-10-14T10:17:53;17.27;;;10.50;;
36497;SDS011;22513;51.222;6.480;2022-10-14T10:22:52;14.45;;;11.30;;
36497;SDS011;22513;51.222;6.480;2022-10-14T10:25:20;13.43;;;10.32;;
36497;SDS011;22513;51.222;6.480;2022-10-14T10:27:52;17.83;;;12.50;;
36497;SDS011;22513;51.222;6.480;2022-10-14T10:41:35;18.00;;;12.60;;
36497;SDS011;22513;51.222;6.480;2022-10-14T10:54:51;21.92;;;13.32;;
36497;SDS011;22513;51.222;6.480;2022-10-14T11:00:25;21.15;;;13.95;;
36497;SDS011;22513;51.222;6.480;2022-10-14T11:02:57;25.80;;;14.60;;
36497;SDS011;22513;51.222;6.480;2022-10-14T11:05:47;23.15;;;14.55;;
36497;SDS011;22513;51.222;6.480;2022-10-14T11:17:27;22.95;;;13.82;;
36497;SDS011;22513;51.222;6.480;2022-10-14T11:25:35;20.38;;;14.23;;
36497;SDS011;22513;51.222;6.480;2022-10-14T11:44:11;23.52;;;15.00;;
36497;SDS011;22513;51.222;6.480;2022-10-14T11:46:47;23.50;;;14.73;;
36497;SDS011;22513;51.222;6.480;2022-10-14T11:49:19;23.10;;;15.75;;
36497;SDS011;22513;51.222;6.480;2022-10-14T11:54:31;20.27;;;13.85;;
36497;SDS011;22513;51.222;6.480;2022-10-14T11:57:03;50.95;;;26.27;;
36497;SDS011;22513;51.222;6.480;2022-10-14T11:59:35;19.73;;;13.40;;
36497;SDS011;22513;51.222;6.480;2022-10-14T12:10:37;17.67;;;11.75;;
36497;SDS011;22513;51.222;6.480;2022-10-14T12:13:09;18.15;;;12.57;;
36497;SDS011;22513;51.222;6.480;2022-10-14T12:15:41;18.30;;;12.07;;
36497;SDS011;22513;51.222;6.480;2022-10-14T12:18:12;20.85;;;13.23;;
36497;SDS011;22513;51.222;6.480;2022-10-14T12:20:59;19.50;;;13.40;;
36497;SDS011;22513;51.222;6.480;2022-10-14T12:29:02;15.95;;;12.07;;
36497;SDS011;22513;51.222;6.480;2022-10-14T12:31:33;17.13;;;11.52;;
36497;SDS011;22513;51.222;6.480;2022-10-14T12:34:43;15.80;;;12.20;;
36497;SDS011;22513;51.222;6.480;2022-10-14T12:36:58;15.60;;;10.48;;
36497;SDS011;22513;51.222;6.480;2022-10-14T12:39:28;14.65;;;11.20;;
36497;SDS011;22513;51.222;6.480;2022-10-14T12:42:12;15.50;;;11.70;;
36497;SDS011;22513;51.222;6.480;2022-10-14T12:44:43;16.08;;;11.68;;
36497;SDS011;22513;51.222;6.480;2022-10-14T12:47:23;15.82;;;11.07;;
36497;SDS011;22513;51.222;6.480;2022-10-14T12:50:21;14.00;;;11.45;;
36497;SDS011;22513;51.222;6.480;2022-10-14T12:52:55;15.70;;;11.07;;
36497;SDS011;22513;51.222;6.480;2022-10-14T12:55:26;15.95;;;10.85;;
36497;SDS011;22513;51.222;6.480;2022-10-14T12:57:56;13.75;;;10.32;;
36497;SDS011;22513;51.222;6.480;2022-10-14T13:02:50;20.88;;;9.95;;
36497;SDS011;22513;51.222;6.480;2022-10-14T13:19:00;15.02;;;10.13;;
36497;SDS011;22513;51.222;6.480;2022-10-14T13:24:37;12.57;;;9.38;;
36497;SDS011;22513;51.222;6.480;2022-10-14T13:29:41;16.75;;;9.65;;
36497;SDS011;22513;51.222;6.480;2022-10-14T13:38:01;12.00;;;8.80;;
36497;SDS011;22513;51.222;6.480;2022-10-14T13:40:29;10.60;;;7.95;;
36497;SDS011;22513;51.222;6.480;2022-10-14T13:43:01;21.13;;;11.55;;
36497;SDS011;22513;51.222;6.480;2022-10-14T13:45:38;11.65;;;7.90;;
36497;SDS011;22513;51.222;6.480;2022-10-14T13:48:13;12.18;;;7.80;;
36497;SDS011;22513;51.222;6.480;2022-10-14T13:50:41;10.55;;;7.25;;
36497;SDS011;22513;51.222;6.480;2022-10-14T13:53:15;10.55;;;7.63;;
36497;SDS011;22513;51.222;6.480;2022-10-14T13:55:44;11.80;;;7.07;;
36497;SDS011;22513;51.222;6.480;2022-10-14T14:06:11;9.60;;;6.15;;
36497;SDS011;22513;51.222;6.480;2022-10-14T14:08:44;10.63;;;6.95;;
36497;SDS011;22513;51.222;6.480;2022-10-14T14:11:17;9.35;;;6.65;;
36497;SDS011;22513;51.222;6.480;2022-10-14T14:13:48;10.52;;;6.25;;
36497;SDS011;22513;51.222;6.480;2022-10-14T14:16:26;8.13;;;6.13;;
36497;SDS011;22513;51.222;6.480;2022-10-14T14:18:54;7.88;;;6.35;;
36497;SDS011;22513;51.222;6.480;2022-10-14T14:21:21;9.50;;;6.63;;
36497;SDS011;22513;51.222;6.480;2022-10-14T14:23:49;10.80;;;6.68;;
36497;SDS011;22513;51.222;6.480;2022-10-14T14:26:16;9.65;;;6.15;;
36497;SDS011;22513;51.222;6.480;2022-10-14T14:28:43;12.23;;;6.15;;
36497;SDS011;22513;51.222;6.480;2022-10-14T14:31:13;9.80;;;7.05;;
36497;SDS011;22513;51.222;6.480;2022-10-14T14:33:41;8.30;;;6.55;;
36497;SDS011;22513;51.222;6.480;2022-10-14T14:36:15;8.10;;;6.00;;
36497;SDS011;22513;51.222;6.480;2022-10-14T14:38:50;9.65;;;6.43;;
36497;SDS011;22513;51.222;6.480;2022-10-14T14:41:21;7.95;;;6.03;;
36497;SDS011;22513;51.222;6.480;2022-10-14T14:43:51;11.00;;;6.00;;
36497;SDS011;22513;51.222;6.480;2022-10-14T14:46:30;7.97;;;6.72;;
36497;SDS011;22513;51.222;6.480;2022-10-14T14:49:03;11.70;;;6.88;;
36497;SDS011;22513;51.222;6.480;2022-10-14T14:51:32;7.68;;;6.18;;
36497;SDS011;22513;51.222;6.480;2022-10-14T14:54:00;10.55;;;6.40;;
36497;SDS011;22513;51.222;6.480;2022-10-14T14:56:30;10.73;;;7.38;;
36497;SDS011;22513;51.222;6.480;2022-10-14T15:00:16;9.77;;;6.60;;
36497;SDS011;22513;51.222;6.480;2022-10-14T15:02:04;10.07;;;5.75;;
36497;SDS011;22513;51.222;6.480;2022-10-14T15:04:39;13.85;;;7.78;;
36497;SDS011;22513;51.222;6.480;2022-10-14T15:07:15;12.55;;;7.80;;
36497;SDS011;22513;51.222;6.480;2022-10-14T15:09:45;7.50;;;5.68;;
36497;SDS011;22513;51.222;6.480;2022-10-14T15:12:24;5.55;;;4.82;;
36497;SDS011;22513;51.222;6.480;2022-10-14T15:15:06;8.35;;;4.30;;
36497;SDS011;22513;51.222;6.480;2022-10-14T15:17:52;5.82;;;4.00;;
36497;SDS011;22513;51.222;6.480;2022-10-14T15:20:34;7.10;;;4.47;;
36497;SDS011;22513;51.222;6.480;2022-10-14T15:23:00;5.00;;;4.20;;
36497;SDS011;22513;51.222;6.480;2022-10-14T15:25:39;5.13;;;4.63;;
36497;SDS011;22513;51.222;6.480;2022-10-14T15:28:26;7.53;;;4.90;;
36497;SDS011;22513;51.222;6.480;2022-10-14T15:30:55;7.38;;;5.00;;
36497;SDS011;22513;51.222;6.480;2022-10-14T15:33:22;5.75;;;5.15;;
36497;SDS011;22513;51.222;6.480;2022-10-14T15:38:26;8.32;;;6.28;;
36497;SDS011;22513;51.222;6.480;2022-10-14T15:40:52;7.03;;;6.00;;
36497;SDS011;22513;51.222;6.480;2022-10-14T15:43:19;8.82;;;6.53;;
36497;SDS011;22513;51.222;6.480;2022-10-14T15:45:50;9.10;;;6.57;;
36497;SDS011;22513;51.222;6.480;2022-10-14T15:48:39;10.10;;;7.57;;
36497;SDS011;22513;51.222;6.480;2022-10-14T15:51:11;12.68;;;8.02;;
36497;SDS011;22513;51.222;6.480;2022-10-14T15:53:40;12.68;;;8.93;;
36497;SDS011;22513;51.222;6.480;2022-10-14T15:56:05;10.43;;;8.07;;
36497;SDS011;22513;51.222;6.480;2022-10-14T15:58:31;10.70;;;7.65;;
36497;SDS011;22513;51.222;6.480;2022-10-14T16:00:58;10.35;;;8.55;;
36497;SDS011;22513;51.222;6.480;2022-10-14T16:03:24;10.48;;;8.65;;
36497;SDS011;22513;51.222;6.480;2022-10-14T16:05:50;14.95;;;9.73;;
36497;SDS011;22513;51.222;6.480;2022-10-14T16:08:16;12.77;;;9.98;;
36497;SDS011;22513;51.222;6.480;2022-10-14T16:10:42;10.93;;;9.68;;
36497;SDS011;22513;51.222;6.480;2022-10-14T16:13:12;10.13;;;7.78;;
36497;SDS011;22513;51.222;6.480;2022-10-14T16:18:06;12.18;;;8.10;;
36497;SDS011;22513;51.222;6.480;2022-10-14T16:20:32;10.52;;;8.13;;
36497;SDS011;22513;51.222;6.480;2022-10-14T16:22:59;10.35;;;7.88;;
36497;SDS011;22513;51.222;6.480;2022-10-14T16:25:33;11.02;;;7.93;;
36497;SDS011;22513;51.222;6.480;2022-10-14T16:28:02;10.35;;;8.65;;
36497;SDS011;22513;51.222;6.480;2022-10-14T16:30:31;11.55;;;8.52;;
36497;SDS011;22513;51.222;6.480;2022-10-14T16:32:56;10.57;;;9.00;;
36497;SDS011;22513;51.222;6.480;2022-10-14T16:35:22;12.15;;;9.10;;
36497;SDS011;22513;51.222;6.480;2022-10-14T16:37:48;13.18;;;10.80;;
36497;SDS011;22513;51.222;6.480;2022-10-14T16:40:13;14.93;;;11.23;;
36497;SDS011;22513;51.222;6.480;2022-10-14T16:42:39;17.65;;;12.10;;
36497;SDS011;22513;51.222;6.480;2022-10-14T16:45:04;15.38;;;12.05;;
36497;SDS011;22513;51.222;6.480;2022-10-14T16:47:30;16.48;;;11.60;;
36497;SDS011;22513;51.222;6.480;2022-10-14T16:49:56;18.17;;;12.05;;
36497;SDS011;22513;51.222;6.480;2022-10-14T16:52:23;16.70;;;12.60;;
36497;SDS011;22513;51.222;6.480;2022-10-14T16:54:49;17.20;;;12.80;;
36497;SDS011;22513;51.222;6.480;2022-10-14T16:57:15;19.77;;;13.63;;
36497;SDS011;22513;51.222;6.480;2022-10-14T16:59:40;17.90;;;13.07;;
36497;SDS011;22513;51.222;6.480;2022-10-14T17:02:06;21.50;;;13.77;;
36497;SDS011;22513;51.222;6.480;2022-10-14T17:04:35;21.60;;;14.60;;
36497;SDS011;22513;51.222;6.480;2022-10-14T17:07:01;20.00;;;14.27;;
36497;SDS011;22513;51.222;6.480;2022-10-14T17:09:31;21.55;;;14.43;;
36497;SDS011;22513;51.222;6.480;2022-10-14T17:11:59;21.05;;;15.05;;
36497;SDS011;22513;51.222;6.480;2022-10-14T17:14:26;21.88;;;15.18;;
36497;SDS011;22513;51.222;6.480;2022-10-14T17:16:55;24.23;;;15.05;;